sensor_id;sensor_type;location;lat;lon;timestamp;temperature;humidity
12957;DHT22;6543;48.836;10.092;2023-08-17T00:02:04;20.20;99.90
12957;DHT22;6543;48.836;10.092;2023-08-17T00:04:31;20.20;99.90
12957;DHT22;6543;48.836;10.092;2023-08-17T00:06:58;20.20;99.90
12957;DHT22;6543;48.836;10.092;2023-08-17T00:09:25;20.10;99.90
12957;DHT22;6543;48.836;10.092;2023-08-17T00:11:52;20.00;99.90
12957;DHT22;6543;48.836;10.092;2023-08-17T00:14:19;20.00;99.90
12957;DHT22;6543;48.836;10.092;2023-08-17T00:16:49;19.90;99.90
12957;DHT22;6543;48.836;10.092;2023-08-17T00:19:16;19.90;99.90
12957;DHT22;6543;48.836;10.092;2023-08-17T00:21:44;19.80;99.90
12957;DHT22;6543;48.836;10.092;2023-08-17T00:24:11;19.80;99.90
12957;DHT22;6543;48.836;10.092;2023-08-17T00:26:38;19.70;99.90
12957;DHT22;6543;48.836;10.092;2023-08-17T00:29:05;19.70;99.90
12957;DHT22;6543;48.836;10.092;2023-08-17T00:31:32;19.60;99.90
12957;DHT22;6543;48.836;10.092;2023-08-17T00:34:00;19.60;99.90
12957;DHT22;6543;48.836;10.092;2023-08-17T00:36:27;19.60;99.90
12957;DHT22;6543;48.836;10.092;2023-08-17T00:38:54;19.50;99.90
12957;DHT22;6543;48.836;10.092;2023-08-17T00:41:21;19.50;99.90
12957;DHT22;6543;48.836;10.092;2023-08-17T00:43:47;19.40;99.90
12957;DHT22;6543;48.836;10.092;2023-08-17T00:46:14;19.40;99.90
12957;DHT22;6543;48.836;10.092;2023-08-17T00:48:42;19.40;99.90
12957;DHT22;6543;48.836;10.092;2023-08-17T00:51:10;19.30;99.90
12957;DHT22;6543;48.836;10.092;2023-08-17T00:53:37;19.20;99.90
12957;DHT22;6543;48.836;10.092;2023-08-17T00:56:04;19.20;99.90
12957;DHT22;6543;48.836;10.092;2023-08-17T00:58:32;19.10;99.90
12957;DHT22;6543;48.836;10.092;2023-08-17T01:00:59;19.10;99.90
12957;DHT22;6543;48.836;10.092;2023-08-17T01:03:28;19.10;99.90
12957;DHT22;6543;48.836;10.092;2023-08-17T01:05:55;19.00;99.90
12957;DHT22;6543;48.836;10.092;2023-08-17T01:08:24;19.00;99.90
12957;DHT22;6543;48.836;10.092;2023-08-17T01:10:55;18.80;99.90
12957;DHT22;6543;48.836;10.092;2023-08-17T01:13:28;18.80;99.90
12957;DHT22;6543;48.836;10.092;2023-08-17T01:15:58;18.80;99.90
12957;DHT22;6543;48.836;10.092;2023-08-17T01:18:29;18.80;99.90
12957;DHT22;6543;48.836;10.092;2023-08-17T01:20:57;18.80;99.90
12957;DHT22;6543;48.836;10.092;2023-08-17T01:23:25;18.80;99.90
12957;DHT22;6543;48.836;10.092;2023-08-17T01:25:53;18.70;99.90
12957;DHT22;6543;48.836;10.092;2023-08-17T01:28:21;18.80;99.90
12957;DHT22;6543;48.836;10.092;2023-08-17T01:30:52;18.80;99.90
12957;DHT22;6543;48.836;10.092;2023-08-17T01:33:24;18.80;99.90
12957;DHT22;6543;48.836;10.092;2023-08-17T01:35:59;18.80;99.90
12957;DHT22;6543;48.836;10.092;2023-08-17T01:38:29;18.80;99.90
12957;DHT22;6543;48.836;10.092;2023-08-17T01:40:58;18.80;99.90
12957;DHT22;6543;48.836;10.092;2023-08-17T01:43:26;18.80;99.90
12957;DHT22;6543;48.836;10.092;2023-08-17T01:45:54;18.70;99.90
12957;DHT22;6543;48.836;10.092;2023-08-17T01:48:21;18.60;99.90
12957;DHT22;6543;48.836;10.092;2023-08-17T01:50:48;18.60;99.90
12957;DHT22;6543;48.836;10.092;2023-08-17T01:53:15;18.50;99.90
12957;DHT22;6543;48.836;10.092;2023-08-17T01:55:43;18.50;99.90
12957;DHT22;6543;48.836;10.092;2023-08-17T01:58:10;18.40;99.90
12957;DHT22;6543;48.836;10.092;2023-08-17T02:00:37;18.40;99.90
12957;DHT22;6543;48.836;10.092;2023-08-17T02:03:04;18.40;99.90
12957;DHT22;6543;48.836;10.092;2023-08-17T02:05:31;18.40;99.90
12957;DHT22;6543;48.836;10.092;2023-08-17T02:07:57;18.40;99.90
12957;DHT22;6543;48.836;10.092;2023-08-17T02:10:24;18.30;99.90
12957;DHT22;6543;48.836;10.092;2023-08-17T02:12:52;18.20;99.90
12957;DHT22;6543;48.836;10.092;2023-08-17T02:15:19;18.20;99.90
12957;DHT22;6543;48.836;10.092;2023-08-17T02:17:46;18.10;99.90
12957;DHT22;6543;48.836;10.092;2023-08-17T02:20:13;18.10;99.90
12957;DHT22;6543;48.836;10.092;2023-08-17T02:22:40;18.10;99.90
12957;DHT22;6543;48.836;10.092;2023-08-17T02:25:08;18.00;99.90
12957;DHT22;6543;48.836;10.092;2023-08-17T02:27:35;18.00;99.90
12957;DHT22;6543;48.836;10.092;2023-08-17T02:30:04;18.00;99.90
12957;DHT22;6543;48.836;10.092;2023-08-17T02:32:31;18.00;99.90
12957;DHT22;6543;48.836;10.092;2023-08-17T02:34:57;18.00;99.90
12957;DHT22;6543;48.836;10.092;2023-08-17T02:37:24;17.90;99.90
12957;DHT22;6543;48.836;10.092;2023-08-17T02:39:51;17.90;99.90
12957;DHT22;6543;48.836;10.092;2023-08-17T02:42:18;17.80;99.90
12957;DHT22;6543;48.836;10.092;2023-08-17T02:44:45;17.80;99.90
12957;DHT22;6543;48.836;10.092;2023-08-17T02:47:13;17.80;99.90
12957;DHT22;6543;48.836;10.092;2023-08-17T02:49:40;17.70;99.90
12957;DHT22;6543;48.836;10.092;2023-08-17T02:52:07;17.80;99.90
12957;DHT22;6543;48.836;10.092;2023-08-17T02:54:34;17.80;99.90
12957;DHT22;6543;48.836;10.092;2023-08-17T02:57:00;17.80;99.90
12957;DHT22;6543;48.836;10.092;2023-08-17T02:59:27;17.80;99.90
12957;DHT22;6543;48.836;10.092;2023-08-17T03:01:54;17.80;99.90
12957;DHT22;6543;48.836;10.092;2023-08-17T03:04:23;17.80;99.90
12957;DHT22;6543;48.836;10.092;2023-08-17T03:06:49;17.80;99.90
12957;DHT22;6543;48.836;10.092;2023-08-17T03:09:16;17.70;99.90
12957;DHT22;6543;48.836;10.092;2023-08-17T03:11:43;17.70;99.90
12957;DHT22;6543;48.836;10.092;2023-08-17T03:14:10;17.70;99.90
12957;DHT22;6543;48.836;10.092;2023-08-17T03:16:37;17.60;99.90
12957;DHT22;6543;48.836;10.092;2023-08-17T03:19:03;17.60;99.90
12957;DHT22;6543;48.836;10.092;2023-08-17T03:21:33;17.60;99.90
12957;DHT22;6543;48.836;10.092;2023-08-17T03:24:00;17.60;99.90
12957;DHT22;6543;48.836;10.092;2023-08-17T03:26:27;17.50;99.90
12957;DHT22;6543;48.836;10.092;2023-08-17T03:28:53;17.50;99.90
12957;DHT22;6543;48.836;10.092;2023-08-17T03:31:21;17.40;99.90
12957;DHT22;6543;48.836;10.092;2023-08-17T03:33:47;17.50;99.90
12957;DHT22;6543;48.836;10.092;2023-08-17T03:36:14;17.40;99.90
12957;DHT22;6543;48.836;10.092;2023-08-17T03:38:43;17.50;99.90
12957;DHT22;6543;48.836;10.092;2023-08-17T03:41:10;17.40;99.90
12957;DHT22;6543;48.836;10.092;2023-08-17T03:43:37;17.40;99.90
12957;DHT22;6543;48.836;10.092;2023-08-17T03:46:04;17.30;99.90
12957;DHT22;6543;48.836;10.092;2023-08-17T03:48:31;17.30;99.90
12957;DHT22;6543;48.836;10.092;2023-08-17T03:50:58;17.20;99.90
12957;DHT22;6543;48.836;10.092;2023-08-17T03:53:24;17.30;99.90
12957;DHT22;6543;48.836;10.092;2023-08-17T03:55:53;17.30;99.90
12957;DHT22;6543;48.836;10.092;2023-08-17T03:58:19;17.40;99.90
12957;DHT22;6543;48.836;10.092;2023-08-17T04:00:49;17.30;99.90
12957;DHT22;6543;48.836;10.092;2023-08-17T04:03:17;17.30;99.90
12957;DHT22;6543;48.836;10.092;2023-08-17T04:05:43;17.20;99.90
12957;DHT22;6543;48.836;10.092;2023-08-17T04:08:10;17.20;99.90
12957;DHT22;6543;48.836;10.092;2023-08-17T04:10:37;17.60;99.90
12957;DHT22;6543;48.836;10.092;2023-08-17T04:13:06;17.20;99.90
12957;DHT22;6543;48.836;10.092;2023-08-17T04:15:33;17.30;99.90
12957;DHT22;6543;48.836;10.092;2023-08-17T04:18:00;17.30;99.90
12957;DHT22;6543;48.836;10.092;2023-08-17T04:20:27;17.40;99.90
12957;DHT22;6543;48.836;10.092;2023-08-17T04:22:53;17.30;99.90
12957;DHT22;6543;48.836;10.092;2023-08-17T04:25:20;17.30;99.90
12957;DHT22;6543;48.836;10.092;2023-08-17T04:27:47;17.40;99.90
12957;DHT22;6543;48.836;10.092;2023-08-17T04:30:15;17.40;99.90
12957;DHT22;6543;48.836;10.092;2023-08-17T04:32:42;17.40;99.90
12957;DHT22;6543;48.836;10.092;2023-08-17T04:35:09;17.30;99.90
12957;DHT22;6543;48.836;10.092;2023-08-17T04:37:37;17.30;99.90
12957;DHT22;6543;48.836;10.092;2023-08-17T04:40:05;17.30;99.90
12957;DHT22;6543;48.836;10.092;2023-08-17T04:42:32;17.30;99.90
12957;DHT22;6543;48.836;10.092;2023-08-17T04:44:59;17.20;99.90
12957;DHT22;6543;48.836;10.092;2023-08-17T04:47:27;17.20;99.90
12957;DHT22;6543;48.836;10.092;2023-08-17T04:49:53;17.30;99.90
12957;DHT22;6543;48.836;10.092;2023-08-17T04:52:20;17.30;99.90
12957;DHT22;6543;48.836;10.092;2023-08-17T04:54:47;17.30;99.90
12957;DHT22;6543;48.836;10.092;2023-08-17T04:57:14;17.30;99.90
12957;DHT22;6543;48.836;10.092;2023-08-17T04:59:41;17.40;99.90
12957;DHT22;6543;48.836;10.092;2023-08-17T05:02:08;17.40;99.90
12957;DHT22;6543;48.836;10.092;2023-08-17T05:04:36;17.40;99.90
12957;DHT22;6543;48.836;10.092;2023-08-17T05:07:03;17.50;99.90
12957;DHT22;6543;48.836;10.092;2023-08-17T05:09:29;17.60;99.90
12957;DHT22;6543;48.836;10.092;2023-08-17T05:11:57;17.60;99.90
12957;DHT22;6543;48.836;10.092;2023-08-17T05:14:23;17.70;99.90
12957;DHT22;6543;48.836;10.092;2023-08-17T05:16:50;17.80;99.90
12957;DHT22;6543;48.836;10.092;2023-08-17T05:19:17;17.80;99.90
12957;DHT22;6543;48.836;10.092;2023-08-17T05:21:45;17.90;99.90
12957;DHT22;6543;48.836;10.092;2023-08-17T05:26:41;18.00;99.90
12957;DHT22;6543;48.836;10.092;2023-08-17T05:29:08;18.10;99.90
12957;DHT22;6543;48.836;10.092;2023-08-17T05:31:35;18.20;99.90
12957;DHT22;6543;48.836;10.092;2023-08-17T05:34:02;18.30;99.90
12957;DHT22;6543;48.836;10.092;2023-08-17T05:36:29;18.40;99.90
12957;DHT22;6543;48.836;10.092;2023-08-17T05:38:57;18.60;99.90
12957;DHT22;6543;48.836;10.092;2023-08-17T05:41:24;19.00;99.90
12957;DHT22;6543;48.836;10.092;2023-08-17T05:43:51;19.20;99.90
12957;DHT22;6543;48.836;10.092;2023-08-17T05:46:18;19.00;99.90
12957;DHT22;6543;48.836;10.092;2023-08-17T05:48:45;19.20;99.90
12957;DHT22;6543;48.836;10.092;2023-08-17T05:51:11;19.30;99.90
12957;DHT22;6543;48.836;10.092;2023-08-17T05:53:38;19.30;99.90
12957;DHT22;6543;48.836;10.092;2023-08-17T05:56:07;19.70;99.90
12957;DHT22;6543;48.836;10.092;2023-08-17T05:58:33;19.60;99.90
12957;DHT22;6543;48.836;10.092;2023-08-17T06:01:06;19.70;99.90
12957;DHT22;6543;48.836;10.092;2023-08-17T06:03:33;19.80;99.90
12957;DHT22;6543;48.836;10.092;2023-08-17T06:06:01;19.90;99.90
12957;DHT22;6543;48.836;10.092;2023-08-17T06:08:28;20.30;99.90
12957;DHT22;6543;48.836;10.092;2023-08-17T06:10:55;20.30;99.90
12957;DHT22;6543;48.836;10.092;2023-08-17T06:13:23;20.30;99.90
12957;DHT22;6543;48.836;10.092;2023-08-17T06:15:50;20.50;99.90
12957;DHT22;6543;48.836;10.092;2023-08-17T06:18:17;20.70;99.90
12957;DHT22;6543;48.836;10.092;2023-08-17T06:20:46;20.80;99.90
12957;DHT22;6543;48.836;10.092;2023-08-17T06:23:13;20.90;99.90
12957;DHT22;6543;48.836;10.092;2023-08-17T06:25:40;21.10;99.90
12957;DHT22;6543;48.836;10.092;2023-08-17T06:28:07;21.00;99.90
12957;DHT22;6543;48.836;10.092;2023-08-17T06:30:35;21.30;99.90
12957;DHT22;6543;48.836;10.092;2023-08-17T06:33:02;21.00;99.90
12957;DHT22;6543;48.836;10.092;2023-08-17T06:35:30;21.20;99.90
12957;DHT22;6543;48.836;10.092;2023-08-17T06:37:57;21.30;99.90
12957;DHT22;6543;48.836;10.092;2023-08-17T06:40:24;21.40;99.90
12957;DHT22;6543;48.836;10.092;2023-08-17T06:42:51;21.40;99.90
12957;DHT22;6543;48.836;10.092;2023-08-17T06:45:18;21.10;99.90
12957;DHT22;6543;48.836;10.092;2023-08-17T06:47:46;21.20;99.90
12957;DHT22;6543;48.836;10.092;2023-08-17T06:50:14;21.20;99.90
12957;DHT22;6543;48.836;10.092;2023-08-17T06:52:41;21.50;99.90
12957;DHT22;6543;48.836;10.092;2023-08-17T06:55:08;21.60;99.90
12957;DHT22;6543;48.836;10.092;2023-08-17T06:57:35;21.70;99.90
12957;DHT22;6543;48.836;10.092;2023-08-17T07:00:03;21.90;99.90
12957;DHT22;6543;48.836;10.092;2023-08-17T07:02:31;21.60;99.90
12957;DHT22;6543;48.836;10.092;2023-08-17T07:05:00;21.90;99.90
12957;DHT22;6543;48.836;10.092;2023-08-17T07:07:27;22.20;99.90
12957;DHT22;6543;48.836;10.092;2023-08-17T07:09:53;22.40;99.90
12957;DHT22;6543;48.836;10.092;2023-08-17T07:12:20;22.40;99.90
12957;DHT22;6543;48.836;10.092;2023-08-17T07:14:49;22.10;99.90
12957;DHT22;6543;48.836;10.092;2023-08-17T07:17:16;22.10;99.90
12957;DHT22;6543;48.836;10.092;2023-08-17T07:19:43;22.20;99.90
12957;DHT22;6543;48.836;10.092;2023-08-17T07:22:11;22.40;99.90
12957;DHT22;6543;48.836;10.092;2023-08-17T07:24:38;22.60;99.90
12957;DHT22;6543;48.836;10.092;2023-08-17T07:27:05;23.00;99.90
12957;DHT22;6543;48.836;10.092;2023-08-17T07:29:32;23.00;99.90
12957;DHT22;6543;48.836;10.092;2023-08-17T07:31:58;23.00;99.90
12957;DHT22;6543;48.836;10.092;2023-08-17T07:34:27;23.10;99.90
12957;DHT22;6543;48.836;10.092;2023-08-17T07:36:54;23.20;99.90
12957;DHT22;6543;48.836;10.092;2023-08-17T07:39:22;23.50;99.90
12957;DHT22;6543;48.836;10.092;2023-08-17T07:41:49;23.70;99.90
12957;DHT22;6543;48.836;10.092;2023-08-17T07:44:16;24.20;99.90
12957;DHT22;6543;48.836;10.092;2023-08-17T07:46:43;24.00;99.90
12957;DHT22;6543;48.836;10.092;2023-08-17T07:49:10;23.80;99.90
12957;DHT22;6543;48.836;10.092;2023-08-17T07:51:37;23.60;99.90
12957;DHT22;6543;48.836;10.092;2023-08-17T07:54:04;23.40;99.90
12957;DHT22;6543;48.836;10.092;2023-08-17T07:56:32;23.60;99.90
12957;DHT22;6543;48.836;10.092;2023-08-17T07:58:59;23.80;99.90
12957;DHT22;6543;48.836;10.092;2023-08-17T08:01:26;23.90;99.90
12957;DHT22;6543;48.836;10.092;2023-08-17T08:03:53;24.00;99.90
12957;DHT22;6543;48.836;10.092;2023-08-17T08:06:19;24.20;99.90
12957;DHT22;6543;48.836;10.092;2023-08-17T08:08:47;24.50;99.90
12957;DHT22;6543;48.836;10.092;2023-08-17T08:11:14;24.60;99.90
12957;DHT22;6543;48.836;10.092;2023-08-17T08:13:42;24.90;99.90
12957;DHT22;6543;48.836;10.092;2023-08-17T08:16:09;24.90;99.90
12957;DHT22;6543;48.836;10.092;2023-08-17T08:18:35;24.90;99.90
12957;DHT22;6543;48.836;10.092;2023-08-17T08:21:02;25.00;99.90
12957;DHT22;6543;48.836;10.092;2023-08-17T08:23:29;24.80;99.90
12957;DHT22;6543;48.836;10.092;2023-08-17T08:25:56;24.80;99.90
12957;DHT22;6543;48.836;10.092;2023-08-17T08:28:23;25.10;99.90
12957;DHT22;6543;48.836;10.092;2023-08-17T08:30:52;25.00;99.90
12957;DHT22;6543;48.836;10.092;2023-08-17T08:33:19;25.40;99.90
12957;DHT22;6543;48.836;10.092;2023-08-17T08:35:46;25.70;99.90
12957;DHT22;6543;48.836;10.092;2023-08-17T08:38:14;25.80;99.90
12957;DHT22;6543;48.836;10.092;2023-08-17T08:40:42;25.80;99.90
12957;DHT22;6543;48.836;10.092;2023-08-17T08:43:10;25.80;99.90
12957;DHT22;6543;48.836;10.092;2023-08-17T08:45:38;25.70;99.90
12957;DHT22;6543;48.836;10.092;2023-08-17T08:48:11;26.10;99.90
12957;DHT22;6543;48.836;10.092;2023-08-17T08:50:40;26.30;99.90
12957;DHT22;6543;48.836;10.092;2023-08-17T08:53:11;26.30;99.90
12957;DHT22;6543;48.836;10.092;2023-08-17T08:55:47;26.50;99.90
12957;DHT22;6543;48.836;10.092;2023-08-17T08:58:16;26.40;99.90
12957;DHT22;6543;48.836;10.092;2023-08-17T09:00:46;26.70;99.90
12957;DHT22;6543;48.836;10.092;2023-08-17T09:03:15;26.50;99.90
12957;DHT22;6543;48.836;10.092;2023-08-17T09:05:47;26.40;99.90
12957;DHT22;6543;48.836;10.092;2023-08-17T09:08:15;26.50;99.90
12957;DHT22;6543;48.836;10.092;2023-08-17T09:10:42;26.50;99.90
12957;DHT22;6543;48.836;10.092;2023-08-17T09:13:10;26.40;99.90
12957;DHT22;6543;48.836;10.092;2023-08-17T09:15:36;26.40;99.90
12957;DHT22;6543;48.836;10.092;2023-08-17T09:18:05;26.60;99.90
12957;DHT22;6543;48.836;10.092;2023-08-17T09:20:38;26.50;99.90
12957;DHT22;6543;48.836;10.092;2023-08-17T09:23:10;26.50;99.90
12957;DHT22;6543;48.836;10.092;2023-08-17T09:25:39;26.60;99.90
12957;DHT22;6543;48.836;10.092;2023-08-17T09:28:07;26.40;99.90
12957;DHT22;6543;48.836;10.092;2023-08-17T09:30:52;26.60;99.90
12957;DHT22;6543;48.836;10.092;2023-08-17T09:33:20;26.50;99.90
12957;DHT22;6543;48.836;10.092;2023-08-17T09:35:49;26.60;99.90
12957;DHT22;6543;48.836;10.092;2023-08-17T09:38:16;26.70;99.90
12957;DHT22;6543;48.836;10.092;2023-08-17T09:40:43;26.70;99.90
12957;DHT22;6543;48.836;10.092;2023-08-17T09:43:10;26.80;99.90
12957;DHT22;6543;48.836;10.092;2023-08-17T09:45:38;26.80;99.90
12957;DHT22;6543;48.836;10.092;2023-08-17T09:48:05;26.90;99.90
12957;DHT22;6543;48.836;10.092;2023-08-17T09:50:33;27.10;99.90
12957;DHT22;6543;48.836;10.092;2023-08-17T09:53:02;27.20;99.90
12957;DHT22;6543;48.836;10.092;2023-08-17T09:55:30;27.30;99.90
12957;DHT22;6543;48.836;10.092;2023-08-17T09:58:00;27.30;99.90
12957;DHT22;6543;48.836;10.092;2023-08-17T10:00:28;27.30;99.90
12957;DHT22;6543;48.836;10.092;2023-08-17T10:02:58;27.20;99.90
12957;DHT22;6543;48.836;10.092;2023-08-17T10:05:30;27.30;99.90
12957;DHT22;6543;48.836;10.092;2023-08-17T10:07:59;27.10;99.90
12957;DHT22;6543;48.836;10.092;2023-08-17T10:10:29;27.10;99.90
12957;DHT22;6543;48.836;10.092;2023-08-17T10:13:06;27.10;99.90
12957;DHT22;6543;48.836;10.092;2023-08-17T10:15:38;27.30;99.90
12957;DHT22;6543;48.836;10.092;2023-08-17T10:18:14;27.50;99.90
12957;DHT22;6543;48.836;10.092;2023-08-17T10:20:45;27.90;99.90
12957;DHT22;6543;48.836;10.092;2023-08-17T10:23:17;28.30;99.90
12957;DHT22;6543;48.836;10.092;2023-08-17T10:25:48;28.60;99.90
12957;DHT22;6543;48.836;10.092;2023-08-17T10:28:16;28.70;99.90
12957;DHT22;6543;48.836;10.092;2023-08-17T10:30:43;28.40;99.90
12957;DHT22;6543;48.836;10.092;2023-08-17T10:33:11;28.80;99.90
12957;DHT22;6543;48.836;10.092;2023-08-17T10:35:38;28.70;99.90
12957;DHT22;6543;48.836;10.092;2023-08-17T10:38:06;29.10;99.90
12957;DHT22;6543;48.836;10.092;2023-08-17T10:40:37;29.40;99.90
12957;DHT22;6543;48.836;10.092;2023-08-17T10:43:07;29.10;99.90
12957;DHT22;6543;48.836;10.092;2023-08-17T10:45:35;28.90;99.90
12957;DHT22;6543;48.836;10.092;2023-08-17T10:48:25;28.90;99.90
12957;DHT22;6543;48.836;10.092;2023-08-17T10:51:00;29.20;99.90
12957;DHT22;6543;48.836;10.092;2023-08-17T10:53:34;29.30;99.90
12957;DHT22;6543;48.836;10.092;2023-08-17T10:56:01;29.60;99.90
12957;DHT22;6543;48.836;10.092;2023-08-17T10:58:34;29.70;99.90
12957;DHT22;6543;48.836;10.092;2023-08-17T11:01:01;29.80;99.90
12957;DHT22;6543;48.836;10.092;2023-08-17T11:03:27;29.70;99.90
12957;DHT22;6543;48.836;10.092;2023-08-17T11:05:55;29.60;99.90
12957;DHT22;6543;48.836;10.092;2023-08-17T11:08:23;29.10;99.90
12957;DHT22;6543;48.836;10.092;2023-08-17T11:10:58;28.90;99.90
12957;DHT22;6543;48.836;10.092;2023-08-17T11:13:27;29.40;99.90
12957;DHT22;6543;48.836;10.092;2023-08-17T11:15:57;29.60;99.90
12957;DHT22;6543;48.836;10.092;2023-08-17T11:18:25;29.80;99.90
12957;DHT22;6543;48.836;10.092;2023-08-17T11:20:52;29.70;99.90
12957;DHT22;6543;48.836;10.092;2023-08-17T11:23:20;29.70;99.90
12957;DHT22;6543;48.836;10.092;2023-08-17T11:25:47;29.80;99.90
12957;DHT22;6543;48.836;10.092;2023-08-17T11:28:15;30.10;99.90
12957;DHT22;6543;48.836;10.092;2023-08-17T11:30:42;30.20;99.90
12957;DHT22;6543;48.836;10.092;2023-08-17T11:33:10;30.90;99.90
12957;DHT22;6543;48.836;10.092;2023-08-17T11:35:37;30.80;99.90
12957;DHT22;6543;48.836;10.092;2023-08-17T11:38:05;30.70;99.90
12957;DHT22;6543;48.836;10.092;2023-08-17T11:40:32;30.80;99.90
12957;DHT22;6543;48.836;10.092;2023-08-17T11:42:59;30.80;99.90
12957;DHT22;6543;48.836;10.092;2023-08-17T11:45:26;30.90;99.90
12957;DHT22;6543;48.836;10.092;2023-08-17T11:47:53;30.80;99.90
12957;DHT22;6543;48.836;10.092;2023-08-17T11:50:22;30.60;99.90
12957;DHT22;6543;48.836;10.092;2023-08-17T11:52:51;30.30;99.90
12957;DHT22;6543;48.836;10.092;2023-08-17T11:55:18;30.30;99.90
12957;DHT22;6543;48.836;10.092;2023-08-17T11:57:46;30.10;99.90
12957;DHT22;6543;48.836;10.092;2023-08-17T12:00:18;30.30;99.90
12957;DHT22;6543;48.836;10.092;2023-08-17T12:02:47;30.40;99.90
12957;DHT22;6543;48.836;10.092;2023-08-17T12:05:19;30.30;99.90
12957;DHT22;6543;48.836;10.092;2023-08-17T12:07:47;30.40;99.90
12957;DHT22;6543;48.836;10.092;2023-08-17T12:10:14;30.20;99.90
12957;DHT22;6543;48.836;10.092;2023-08-17T12:12:42;30.00;99.90
12957;DHT22;6543;48.836;10.092;2023-08-17T12:15:10;30.00;99.90
12957;DHT22;6543;48.836;10.092;2023-08-17T12:17:44;30.50;99.90
12957;DHT22;6543;48.836;10.092;2023-08-17T12:20:15;31.10;99.90
12957;DHT22;6543;48.836;10.092;2023-08-17T12:22:43;31.50;99.90
12957;DHT22;6543;48.836;10.092;2023-08-17T12:25:11;31.70;99.90
12957;DHT22;6543;48.836;10.092;2023-08-17T12:27:38;31.80;99.90
12957;DHT22;6543;48.836;10.092;2023-08-17T12:32:38;31.60;99.90
12957;DHT22;6543;48.836;10.092;2023-08-17T12:35:06;31.70;99.90
12957;DHT22;6543;48.836;10.092;2023-08-17T12:37:33;31.90;99.90
12957;DHT22;6543;48.836;10.092;2023-08-17T12:40:00;32.10;99.90
12957;DHT22;6543;48.836;10.092;2023-08-17T12:42:29;31.10;99.90
12957;DHT22;6543;48.836;10.092;2023-08-17T12:44:56;31.40;99.90
12957;DHT22;6543;48.836;10.092;2023-08-17T12:47:22;31.60;99.90
12957;DHT22;6543;48.836;10.092;2023-08-17T12:49:49;31.40;99.90
12957;DHT22;6543;48.836;10.092;2023-08-17T12:52:16;31.60;99.90
12957;DHT22;6543;48.836;10.092;2023-08-17T12:54:43;32.00;99.90
12957;DHT22;6543;48.836;10.092;2023-08-17T12:57:10;32.80;99.90
12957;DHT22;6543;48.836;10.092;2023-08-17T12:59:38;33.10;99.90
12957;DHT22;6543;48.836;10.092;2023-08-17T13:02:05;33.20;99.90
12957;DHT22;6543;48.836;10.092;2023-08-17T13:04:32;33.30;99.90
12957;DHT22;6543;48.836;10.092;2023-08-17T13:06:59;32.70;99.90
12957;DHT22;6543;48.836;10.092;2023-08-17T13:09:26;32.40;99.90
12957;DHT22;6543;48.836;10.092;2023-08-17T13:11:53;31.80;99.90
12957;DHT22;6543;48.836;10.092;2023-08-17T13:14:19;30.90;99.90
12957;DHT22;6543;48.836;10.092;2023-08-17T13:16:49;30.40;99.90
12957;DHT22;6543;48.836;10.092;2023-08-17T13:19:17;30.00;99.90
12957;DHT22;6543;48.836;10.092;2023-08-17T13:21:44;29.80;99.90
12957;DHT22;6543;48.836;10.092;2023-08-17T13:24:11;29.90;99.90
12957;DHT22;6543;48.836;10.092;2023-08-17T13:26:38;29.90;99.90
12957;DHT22;6543;48.836;10.092;2023-08-17T13:29:05;30.00;99.90
12957;DHT22;6543;48.836;10.092;2023-08-17T13:31:32;30.00;99.90
12957;DHT22;6543;48.836;10.092;2023-08-17T13:34:00;29.80;99.90
12957;DHT22;6543;48.836;10.092;2023-08-17T13:36:27;29.60;99.90
12957;DHT22;6543;48.836;10.092;2023-08-17T13:38:54;29.30;99.90
12957;DHT22;6543;48.836;10.092;2023-08-17T13:41:21;29.00;99.90
12957;DHT22;6543;48.836;10.092;2023-08-17T13:43:50;28.70;99.90
12957;DHT22;6543;48.836;10.092;2023-08-17T13:46:17;28.60;99.90
12957;DHT22;6543;48.836;10.092;2023-08-17T13:48:44;28.40;99.90
12957;DHT22;6543;48.836;10.092;2023-08-17T13:51:12;28.10;99.90
12957;DHT22;6543;48.836;10.092;2023-08-17T13:53:39;28.00;99.90
12957;DHT22;6543;48.836;10.092;2023-08-17T13:56:06;27.70;99.90
12957;DHT22;6543;48.836;10.092;2023-08-17T13:58:33;27.60;99.90
12957;DHT22;6543;48.836;10.092;2023-08-17T14:01:00;27.40;99.90
12957;DHT22;6543;48.836;10.092;2023-08-17T14:03:27;27.30;99.90
12957;DHT22;6543;48.836;10.092;2023-08-17T14:05:54;27.00;99.90
12957;DHT22;6543;48.836;10.092;2023-08-17T14:08:22;26.70;99.90
12957;DHT22;6543;48.836;10.092;2023-08-17T14:10:50;26.60;99.90
12957;DHT22;6543;48.836;10.092;2023-08-17T14:13:17;25.90;99.90
12957;DHT22;6543;48.836;10.092;2023-08-17T14:15:43;26.30;99.90
12957;DHT22;6543;48.836;10.092;2023-08-17T14:18:10;26.20;99.90
12957;DHT22;6543;48.836;10.092;2023-08-17T14:20:37;26.10;99.90
12957;DHT22;6543;48.836;10.092;2023-08-17T14:23:04;26.00;99.90
12957;DHT22;6543;48.836;10.092;2023-08-17T14:25:32;25.90;99.90
12957;DHT22;6543;48.836;10.092;2023-08-17T14:27:59;25.80;99.90
12957;DHT22;6543;48.836;10.092;2023-08-17T14:30:26;25.70;99.90
12957;DHT22;6543;48.836;10.092;2023-08-17T14:32:53;25.60;99.90
12957;DHT22;6543;48.836;10.092;2023-08-17T14:35:20;25.50;99.90
12957;DHT22;6543;48.836;10.092;2023-08-17T14:37:47;25.30;99.90
12957;DHT22;6543;48.836;10.092;2023-08-17T14:40:14;25.30;99.90
12957;DHT22;6543;48.836;10.092;2023-08-17T14:42:44;25.30;99.90
12957;DHT22;6543;48.836;10.092;2023-08-17T14:45:11;25.20;99.90
12957;DHT22;6543;48.836;10.092;2023-08-17T14:47:38;25.10;99.90
12957;DHT22;6543;48.836;10.092;2023-08-17T14:50:06;25.00;99.90
12957;DHT22;6543;48.836;10.092;2023-08-17T14:52:32;24.80;99.90
12957;DHT22;6543;48.836;10.092;2023-08-17T14:54:59;24.80;99.90
12957;DHT22;6543;48.836;10.092;2023-08-17T14:57:27;24.70;99.90
12957;DHT22;6543;48.836;10.092;2023-08-17T14:59:55;24.60;99.90
12957;DHT22;6543;48.836;10.092;2023-08-17T15:02:22;24.60;99.90
12957;DHT22;6543;48.836;10.092;2023-08-17T15:04:48;24.50;99.90
12957;DHT22;6543;48.836;10.092;2023-08-17T15:07:15;24.40;99.90
12957;DHT22;6543;48.836;10.092;2023-08-17T15:09:42;24.20;99.90
12957;DHT22;6543;48.836;10.092;2023-08-17T15:12:09;24.10;99.90
12957;DHT22;6543;48.836;10.092;2023-08-17T15:14:37;23.60;99.90
12957;DHT22;6543;48.836;10.092;2023-08-17T15:17:05;24.10;99.90
12957;DHT22;6543;48.836;10.092;2023-08-17T15:19:34;24.10;99.90
12957;DHT22;6543;48.836;10.092;2023-08-17T15:22:01;24.00;99.90
12957;DHT22;6543;48.836;10.092;2023-08-17T15:24:28;24.00;99.90
12957;DHT22;6543;48.836;10.092;2023-08-17T15:26:55;23.90;99.90
12957;DHT22;6543;48.836;10.092;2023-08-17T15:29:22;23.80;99.90
12957;DHT22;6543;48.836;10.092;2023-08-17T15:31:49;23.70;99.90
12957;DHT22;6543;48.836;10.092;2023-08-17T15:34:17;23.70;99.90
12957;DHT22;6543;48.836;10.092;2023-08-17T15:36:44;23.60;99.90
12957;DHT22;6543;48.836;10.092;2023-08-17T15:39:11;23.50;99.90